Terminal Aerodrome Forecast
Issued by NWS Charleston, WV

Current Version | Previous Version | Text Only | Print | Product List | Glossary Off
Versions: 1 2 3 4 5 6 7 8 9 10 11 12 13 14 15 16 17 18 19 20 21 22 23 24

000
FTUS41 KRLX 171100
TAFCRW
TAF
KCRW 171138Z 1712/1812 00000KT P6SM BKN025
     FM171300 VRB03KT P6SM BKN015
     FM171800 23004KT P6SM SCT025
     FM180000 00000KT P6SM SCT035
     FM180400 00000KT P6SM FEW140
     FM180500 00000KT 6SM BR FEW150
     FM180600 00000KT 4SM BR FEW001=

USA.gov is the U.S. government's official web portal to all federal, state and local government web resources and services.